Galva, Illinois
Current Conditions -  °F | °C
As of 5:15 AM on Saturday 01 Nov 2014 (Local Time) from KGBG Reporting Station
Clear Clear  
Wind Chill: 15°   Ceiling: Unl
Heat Index: 22°   Visibility: 10mi
Dew Point: 18°   Wind: 5mph
Humidity: 87%   Direction: 330°NNW
Pressure: 30.45"   Gusts: NA
Location:  41.17°N, 90.04°W
Report Text: KGBG 011015Z AUTO 33004KT 10SM CLR M06/M08 A3045 RMK AO2 T10581076
Loading
Personal Weather Stations






























Interactive Weather Map
Tropical Storm Tracking
New forecast layout! Learn more

10-Day Weather Forecast

Advertisements
Track Severe Weather on mobile